Etusivu
METAR-TAF:

METAR-TAF

Lentoasemat :

Geilenkirchen, Saksa

Leveyspiiri: 50-57-39N, Pituuspiiri: 006-2-33E, korkeus merenpinnasta: 90 m

Tämänhetkinen sää

Tämä raportti tehtiin 2 tuntia ja 49 minuuttia sitten, kello 17.50 UTC
Tuuli 6 kn pohjoisesta/koillisesta
Lämpötila 25°C
Kosteus 44%
Ilmanpaine 1023 hPa
Näkyvyys 10 km tai enemmän
ei pilviä alle 1500 m:ssä eikä cumulonimbus-pilviä

METAR: ETNG 231750Z 03006KT CAVOK 25/12 Q1023 NOSIG

Aika: 22:39 (20:39 UTC)

Sääennuste

Tämä raportti tehtiin 3 tuntia ja 39 minuuttia sitten, kello 17.00 UTC
Ennuste voimassa 23. päivästä klo 18 UTC - 24. päivään klo 09 UTC
Tuuli 5 kn pohjoisesta/koillisesta
Näkyvyys 10 km tai enemmän
ei pilviä alle 1500 m:ssä eikä cumulonimbus-pilviä
Tulossa
23. päivästä klo 18 UTC - 23. päivään klo 20 UTC
Tuuli 3 kn eri suunnista
Tulossa
24. päivästä klo 07 UTC - 27. päivään klo 09 UTC
Tuuli 6 kn idästä

TAF: ETNG 231700Z 2318/2409 03005KT CAVOK BECMG 2318/2320 VRB03KT BECMG 2407/2709 10006KT

Säähavainnot ja -ennusteet yli 4000 lentoasemalta (METAR- ja TAF-raportit).

Käytössä olevat sääasemat on merkitty karttaan keltaisilla ja punaisilla pisteillä.

Aseta hiiri pisteen päälle nähdäksesi sääaseman nimen.

Klikkaa sitten nähdäksesi säähavainnot ja -ennusteet.

Kartan vaihtaminen: klikkaa mustalla rastilla varustettuja vihreitä pisteitä, niin voit zoomata sisään; viivalla varustettua vihreää pistettä, niin voit zoomata ulos tai vihreitä nuolia, niin pääset viereisille kartoille.


METAR-TAF: